createdAt,value
2023-04-04T00:00:22.619Z,18.70
2023-04-04T00:00:54.082Z,18.71
2023-04-04T00:01:25.464Z,18.72
2023-04-04T00:01:56.911Z,18.74
2023-04-04T00:02:28.344Z,18.73
2023-04-04T00:02:59.914Z,18.73
2023-04-04T00:03:31.427Z,18.74
2023-04-04T00:04:03.051Z,18.74
2023-04-04T00:04:34.586Z,18.73
2023-04-04T00:05:06.015Z,18.74
2023-04-04T00:05:37.445Z,18.73
2023-04-04T00:06:08.865Z,18.72
2023-04-04T00:06:40.265Z,18.73
2023-04-04T00:07:11.698Z,18.71
2023-04-04T00:07:43.109Z,18.71
2023-04-04T00:08:14.543Z,18.70
2023-04-04T00:08:45.956Z,18.69
2023-04-04T00:09:17.370Z,18.68
2023-04-04T00:09:48.782Z,18.69
2023-04-04T00:10:20.200Z,18.70
2023-04-04T00:10:51.611Z,18.69
2023-04-04T00:11:23.035Z,18.68
2023-04-04T00:11:54.438Z,18.64
2023-04-04T00:12:28.474Z,18.64
2023-04-04T00:13:01.225Z,18.64
2023-04-04T00:13:32.636Z,18.64
2023-04-04T00:14:04.052Z,18.65
2023-04-04T00:14:35.483Z,18.62
2023-04-04T00:15:06.875Z,18.62
2023-04-04T00:15:38.277Z,18.63
2023-04-04T00:16:09.716Z,18.63
2023-04-04T00:16:41.131Z,18.61
2023-04-04T00:17:12.547Z,18.60
2023-04-04T00:17:44.022Z,18.61
2023-04-04T00:18:15.487Z,18.61
2023-04-04T00:18:46.932Z,18.62
2023-04-04T00:19:18.373Z,18.59
2023-04-04T00:19:49.774Z,18.59
2023-04-04T00:20:21.193Z,18.60
2023-04-04T00:20:52.666Z,18.60
2023-04-04T00:21:24.110Z,18.60
2023-04-04T00:21:55.532Z,18.57
2023-04-04T00:22:26.936Z,18.58
2023-04-04T00:22:58.321Z,18.58
2023-04-04T00:23:29.728Z,18.58
2023-04-04T00:24:01.141Z,18.58
2023-04-04T00:24:32.529Z,18.57
2023-04-04T00:25:03.941Z,18.57
2023-04-04T00:25:35.345Z,18.55
2023-04-04T00:26:06.756Z,18.55
2023-04-04T00:26:38.170Z,18.53
2023-04-04T00:27:09.781Z,18.54
2023-04-04T00:27:41.202Z,18.53
2023-04-04T00:28:12.656Z,18.53
2023-04-04T00:28:44.069Z,18.52
2023-04-04T00:29:15.469Z,18.50
2023-04-04T00:29:46.903Z,18.52
2023-04-04T00:30:18.326Z,18.52
2023-04-04T00:30:49.722Z,18.49
2023-04-04T00:31:21.137Z,18.50
2023-04-04T00:31:52.603Z,18.52
2023-04-04T00:32:24.233Z,18.51
2023-04-04T00:32:55.767Z,18.49
2023-04-04T00:33:27.332Z,18.50
2023-04-04T00:33:58.813Z,18.49
2023-04-04T00:34:30.205Z,18.48
2023-04-04T00:35:01.610Z,18.47
2023-04-04T00:35:33.015Z,18.46
2023-04-04T00:36:04.487Z,18.46
2023-04-04T00:36:35.906Z,18.43
2023-04-04T00:37:07.362Z,18.44
2023-04-04T00:37:38.852Z,18.44
2023-04-04T00:38:10.294Z,18.45
2023-04-04T00:38:41.773Z,18.41
2023-04-04T00:39:13.174Z,18.41
2023-04-04T00:39:44.558Z,18.41
2023-04-04T00:40:15.974Z,18.42
2023-04-04T00:40:47.379Z,18.41
2023-04-04T00:41:18.787Z,18.40
2023-04-04T00:41:50.198Z,18.39
2023-04-04T00:42:21.613Z,18.40
2023-04-04T00:42:53.041Z,18.41
2023-04-04T00:43:24.476Z,18.40
2023-04-04T00:43:55.916Z,18.39
2023-04-04T00:44:27.326Z,18.36
2023-04-04T00:44:58.751Z,18.38
2023-04-04T00:45:30.187Z,18.36
2023-04-04T00:46:01.719Z,18.38
2023-04-04T00:46:33.223Z,18.37
2023-04-04T00:47:04.670Z,18.38
2023-04-04T00:47:36.140Z,18.36
2023-04-04T00:48:07.618Z,18.37
2023-04-04T00:48:39.129Z,18.36
2023-04-04T00:49:10.517Z,18.34
2023-04-04T00:49:41.928Z,18.35
2023-04-04T00:50:13.365Z,18.34
2023-04-04T00:50:44.773Z,18.33
2023-04-04T00:51:16.170Z,18.33
2023-04-04T00:51:47.567Z,18.32
2023-04-04T00:52:18.978Z,18.30
2023-04-04T00:52:50.400Z,18.30
2023-04-04T00:53:21.813Z,18.32
2023-04-04T00:53:53.246Z,18.32
2023-04-04T00:54:24.636Z,18.32
2023-04-04T00:54:56.061Z,18.32
2023-04-04T00:55:27.477Z,18.31
2023-04-04T00:55:58.888Z,18.31
2023-04-04T00:56:30.285Z,18.28
2023-04-04T00:57:01.702Z,18.30
2023-04-04T00:57:33.095Z,18.29
2023-04-04T00:58:04.511Z,18.29
2023-04-04T00:58:35.928Z,18.28
2023-04-04T00:59:07.365Z,18.29
2023-04-04T00:59:39.019Z,18.29
2023-04-04T01:00:10.525Z,18.29
2023-04-04T01:00:42.104Z,18.28
2023-04-04T01:01:13.631Z,18.27
2023-04-04T01:01:45.072Z,18.27
2023-04-04T01:02:16.468Z,18.28
2023-04-04T01:02:47.993Z,18.27
2023-04-04T01:03:19.420Z,18.26
2023-04-04T01:03:50.857Z,18.25
2023-04-04T01:04:22.345Z,18.26
2023-04-04T01:04:53.793Z,18.25
2023-04-04T01:05:25.240Z,18.25
2023-04-04T01:05:56.662Z,18.24
2023-04-04T01:06:28.073Z,18.24
2023-04-04T01:06:59.462Z,18.25
2023-04-04T01:07:31.937Z,18.24
2023-04-04T01:08:03.773Z,18.22
2023-04-04T01:08:35.156Z,18.22
2023-04-04T01:09:06.569Z,18.22
2023-04-04T01:09:37.962Z,18.23
2023-04-04T01:10:09.424Z,18.22
2023-04-04T01:10:41.090Z,18.20
2023-04-04T01:11:12.685Z,18.22
2023-04-04T01:11:44.113Z,18.22
2023-04-04T01:12:15.505Z,18.20
2023-04-04T01:12:46.913Z,18.19
2023-04-04T01:13:18.307Z,18.17
2023-04-04T01:13:49.729Z,18.17
2023-04-04T01:14:21.155Z,18.16
2023-04-04T01:14:52.558Z,18.16
2023-04-04T01:15:23.977Z,18.18
2023-04-04T01:15:55.410Z,18.16
2023-04-04T01:16:26.838Z,18.17
2023-04-04T01:16:58.355Z,18.17
2023-04-04T01:17:29.822Z,18.16
2023-04-04T01:18:01.286Z,18.16
2023-04-04T01:18:32.744Z,18.16
2023-04-04T01:19:04.148Z,18.16
2023-04-04T01:19:35.550Z,18.16
2023-04-04T01:20:07.105Z,18.16
2023-04-04T01:20:38.754Z,18.16
2023-04-04T01:21:10.342Z,18.16
2023-04-04T01:21:41.799Z,18.14
2023-04-04T01:22:13.197Z,18.14
2023-04-04T01:22:44.620Z,18.14
2023-04-04T01:23:16.035Z,18.14
2023-04-04T01:23:47.429Z,18.14
2023-04-04T01:24:18.860Z,18.14
2023-04-04T01:24:50.269Z,18.13
2023-04-04T01:25:21.663Z,18.13
2023-04-04T01:25:53.069Z,18.13
2023-04-04T01:26:24.482Z,18.12
2023-04-04T01:26:56.006Z,18.13
2023-04-04T01:27:27.402Z,18.11
2023-04-04T01:27:58.792Z,18.11
2023-04-04T01:28:30.206Z,18.12
2023-04-04T01:29:01.614Z,18.11
2023-04-04T01:29:33.033Z,18.10
2023-04-04T01:30:04.444Z,18.08
2023-04-04T01:30:35.903Z,18.09
2023-04-04T01:31:07.494Z,18.09
2023-04-04T01:31:38.975Z,18.08
2023-04-04T01:32:10.365Z,18.08
2023-04-04T01:32:41.768Z,18.06
2023-04-04T01:33:13.194Z,18.08
2023-04-04T01:33:44.611Z,18.08
2023-04-04T01:34:16.017Z,18.07
2023-04-04T01:34:47.438Z,18.08
2023-04-04T01:35:18.830Z,18.06
2023-04-04T01:35:50.251Z,18.07
2023-04-04T01:36:21.699Z,18.06
2023-04-04T01:36:53.178Z,18.07
2023-04-04T01:37:24.631Z,18.07
2023-04-04T01:37:56.062Z,18.05
2023-04-04T01:38:27.480Z,18.05
2023-04-04T01:38:58.877Z,18.05
2023-04-04T01:39:30.322Z,18.04
2023-04-04T01:40:01.787Z,18.03
2023-04-04T01:40:33.177Z,18.03
2023-04-04T01:41:04.568Z,18.02
2023-04-04T01:41:35.993Z,18.03
2023-04-04T01:42:07.430Z,18.03
2023-04-04T01:42:38.844Z,18.03
2023-04-04T01:43:10.258Z,18.02
2023-04-04T01:43:41.727Z,18.02
2023-04-04T01:44:13.138Z,18.01
2023-04-04T01:44:44.530Z,18.03
2023-04-04T01:45:15.931Z,18.02
2023-04-04T01:45:47.393Z,18.01
2023-04-04T01:46:18.960Z,18.00
2023-04-04T01:46:50.390Z,17.99
2023-04-04T01:47:21.835Z,18.00
2023-04-04T01:47:53.313Z,18.00
2023-04-04T01:48:24.796Z,17.99
2023-04-04T01:48:56.218Z,17.99
2023-04-04T01:49:27.609Z,17.98
2023-04-04T01:49:59.008Z,17.98
2023-04-04T01:50:30.420Z,17.97
2023-04-04T01:51:01.821Z,17.96
2023-04-04T01:51:33.238Z,17.96
2023-04-04T01:52:04.637Z,17.96
2023-04-04T01:52:36.094Z,17.97
2023-04-04T01:53:07.488Z,17.96
2023-04-04T01:53:38.897Z,17.96
2023-04-04T01:54:10.317Z,17.96
2023-04-04T01:54:41.736Z,17.95
2023-04-04T01:55:13.160Z,17.94
2023-04-04T01:55:44.567Z,17.95
2023-04-04T01:56:15.978Z,17.93
2023-04-04T01:56:47.391Z,17.94
2023-04-04T01:57:18.805Z,17.94
2023-04-04T01:57:50.244Z,17.94
2023-04-04T01:58:21.646Z,17.93
2023-04-04T01:58:53.064Z,17.94
2023-04-04T01:59:24.500Z,17.93
2023-04-04T01:59:55.933Z,17.92
2023-04-04T02:00:27.336Z,17.92
2023-04-04T02:00:58.753Z,17.91
2023-04-04T02:01:30.194Z,17.92
2023-04-04T02:02:01.641Z,17.91
2023-04-04T02:02:33.097Z,17.90
2023-04-04T02:03:04.582Z,17.90
2023-04-04T02:03:35.983Z,17.90
2023-04-04T02:04:07.462Z,17.91
2023-04-04T02:04:38.946Z,17.89
2023-04-04T02:05:10.342Z,17.89
2023-04-04T02:05:41.736Z,17.89
2023-04-04T02:06:13.156Z,17.88
2023-04-04T02:06:44.544Z,17.88
2023-04-04T02:07:15.926Z,17.88
2023-04-04T02:07:47.382Z,17.88
2023-04-04T02:08:18.823Z,17.88
2023-04-04T02:08:50.240Z,17.86
2023-04-04T02:09:21.658Z,17.85
2023-04-04T02:09:53.080Z,17.86
2023-04-04T02:10:24.493Z,17.87
2023-04-04T02:10:55.900Z,17.85
2023-04-04T02:11:27.304Z,17.85
2023-04-04T02:11:58.716Z,17.85
2023-04-04T02:12:30.116Z,17.84
2023-04-04T02:13:01.523Z,17.85
2023-04-04T02:13:32.985Z,17.84
2023-04-04T02:14:04.377Z,17.84
2023-04-04T02:14:35.793Z,17.84
2023-04-04T02:15:07.196Z,17.85
2023-04-04T02:15:38.636Z,17.82
2023-04-04T02:16:10.069Z,17.83
2023-04-04T02:16:41.493Z,17.83
2023-04-04T02:17:12.892Z,17.82
2023-04-04T02:17:44.310Z,17.81
2023-04-04T02:18:15.709Z,17.80
2023-04-04T02:18:47.144Z,17.80
2023-04-04T02:19:18.555Z,17.79
2023-04-04T02:19:49.970Z,17.79
2023-04-04T02:20:21.380Z,17.80
2023-04-04T02:20:52.774Z,17.80
2023-04-04T02:21:24.174Z,17.79
2023-04-04T02:21:55.575Z,17.80
2023-04-04T02:22:26.982Z,17.78
2023-04-04T02:22:58.383Z,17.80
2023-04-04T02:23:29.833Z,17.78
2023-04-04T02:24:01.247Z,17.77
2023-04-04T02:24:32.636Z,17.77
2023-04-04T02:25:04.028Z,17.77
2023-04-04T02:25:35.436Z,17.76
2023-04-04T02:26:06.858Z,17.75
2023-04-04T02:26:38.255Z,17.76
2023-04-04T02:27:09.691Z,17.75
2023-04-04T02:27:41.110Z,17.75
2023-04-04T02:28:12.570Z,17.74
2023-04-04T02:28:44.003Z,17.75
2023-04-04T02:29:15.426Z,17.74
2023-04-04T02:29:46.815Z,17.73
2023-04-04T02:30:18.212Z,17.72
2023-04-04T02:30:49.622Z,17.73
2023-04-04T02:31:21.080Z,17.72
2023-04-04T02:31:52.503Z,17.72
2023-04-04T02:32:23.986Z,17.72
2023-04-04T02:32:55.397Z,17.73
2023-04-04T02:33:26.817Z,17.72
2023-04-04T02:33:58.269Z,17.72
2023-04-04T02:34:29.718Z,17.71
2023-04-04T02:35:01.144Z,17.71
2023-04-04T02:35:32.566Z,17.71
2023-04-04T02:36:04.137Z,17.71
2023-04-04T02:36:35.576Z,17.69
2023-04-04T02:37:07.006Z,17.69
2023-04-04T02:37:38.429Z,17.70
2023-04-04T02:38:09.840Z,17.67
2023-04-04T02:38:41.235Z,17.67
2023-04-04T02:39:12.628Z,17.66
2023-04-04T02:39:44.130Z,17.67
2023-04-04T02:40:15.546Z,17.67
2023-04-04T02:40:46.950Z,17.68
2023-04-04T02:41:18.349Z,17.66
2023-04-04T02:41:49.746Z,17.66
2023-04-04T02:42:21.143Z,17.65
2023-04-04T02:42:52.554Z,17.65
2023-04-04T02:43:23.941Z,17.66
2023-04-04T02:43:55.345Z,17.66
2023-04-04T02:44:26.766Z,17.65
2023-04-04T02:44:58.189Z,17.65
2023-04-04T02:45:29.617Z,17.65
2023-04-04T02:46:07.720Z,17.63
2023-04-04T02:46:46.209Z,17.64
2023-04-04T02:47:17.615Z,17.64
2023-04-04T02:47:49.092Z,17.64
2023-04-04T02:48:20.544Z,17.63
2023-04-04T02:48:51.950Z,17.62
2023-04-04T02:49:23.378Z,17.63
2023-04-04T02:49:54.787Z,17.61
2023-04-04T02:50:26.209Z,17.61
2023-04-04T02:50:57.624Z,17.61
2023-04-04T02:51:29.021Z,17.61
2023-04-04T02:52:00.448Z,17.60
2023-04-04T02:52:31.836Z,17.61
2023-04-04T02:53:03.244Z,17.60
2023-04-04T02:53:34.673Z,17.61
2023-04-04T02:54:06.097Z,17.59
2023-04-04T02:54:37.540Z,17.59
2023-04-04T02:55:08.953Z,17.60
2023-04-04T02:55:40.411Z,17.60
2023-04-04T02:56:11.825Z,17.58
2023-04-04T02:56:43.228Z,17.58
2023-04-04T02:57:14.616Z,17.58
2023-04-04T02:57:46.021Z,17.58
2023-04-04T02:58:17.439Z,17.58
2023-04-04T02:58:48.869Z,17.57
2023-04-04T02:59:20.291Z,17.57
2023-04-04T02:59:51.716Z,17.54
2023-04-04T03:00:23.148Z,17.53
2023-04-04T03:00:54.591Z,17.54
2023-04-04T03:01:26.102Z,17.55
2023-04-04T03:01:57.649Z,17.55
2023-04-04T03:02:29.208Z,17.53
2023-04-04T03:03:00.978Z,17.53
2023-04-04T03:03:32.637Z,17.54
2023-04-04T03:04:04.239Z,17.54
2023-04-04T03:04:35.699Z,17.54
2023-04-04T03:05:07.115Z,17.54
2023-04-04T03:05:38.558Z,17.52
2023-04-04T03:06:10.042Z,17.53
2023-04-04T03:06:41.454Z,17.52
2023-04-04T03:07:12.872Z,17.54
2023-04-04T03:07:44.280Z,17.54
2023-04-04T03:08:15.679Z,17.53
2023-04-04T03:08:47.092Z,17.51
2023-04-04T03:09:18.553Z,17.52
2023-04-04T03:09:50.023Z,17.53
2023-04-04T03:10:21.424Z,17.53
2023-04-04T03:10:52.817Z,17.51
2023-04-04T03:11:24.266Z,17.51
2023-04-04T03:11:55.677Z,17.51
2023-04-04T03:12:27.101Z,17.49
2023-04-04T03:12:58.511Z,17.48
2023-04-04T03:13:29.922Z,17.50
2023-04-04T03:14:01.329Z,17.50
2023-04-04T03:14:32.752Z,17.47
2023-04-04T03:15:04.182Z,17.47
2023-04-04T03:15:35.620Z,17.45
2023-04-04T03:16:07.103Z,17.47
2023-04-04T03:16:38.610Z,17.48
2023-04-04T03:17:10.134Z,17.48
2023-04-04T03:17:41.612Z,17.48
2023-04-04T03:18:13.022Z,17.46
2023-04-04T03:18:44.427Z,17.47
2023-04-04T03:19:15.844Z,17.47
2023-04-04T03:19:47.241Z,17.47
2023-04-04T03:20:18.636Z,17.47
2023-04-04T03:20:50.085Z,17.46
2023-04-04T03:21:21.535Z,17.46
2023-04-04T03:21:52.954Z,17.45
2023-04-04T03:22:24.371Z,17.44
2023-04-04T03:22:55.805Z,17.43
2023-04-04T03:23:27.189Z,17.44
2023-04-04T03:23:58.648Z,17.43
2023-04-04T03:24:30.069Z,17.44
2023-04-04T03:25:01.478Z,17.43
2023-04-04T03:25:32.907Z,17.41
2023-04-04T03:26:04.350Z,17.42
2023-04-04T03:26:35.770Z,17.43
2023-04-04T03:27:07.178Z,17.42
2023-04-04T03:27:38.597Z,17.42
2023-04-04T03:28:10.010Z,17.41
2023-04-04T03:28:41.411Z,17.41
2023-04-04T03:29:12.817Z,17.41
2023-04-04T03:29:44.225Z,17.41
2023-04-04T03:30:15.683Z,17.40
2023-04-04T03:30:47.092Z,17.39
2023-04-04T03:31:18.510Z,17.41
2023-04-04T03:31:49.915Z,17.40
2023-04-04T03:32:21.384Z,17.40
2023-04-04T03:32:52.838Z,17.40
2023-04-04T03:33:24.313Z,17.41
2023-04-04T03:33:55.706Z,17.40
2023-04-04T03:34:27.106Z,17.39
2023-04-04T03:34:58.541Z,17.37
2023-04-04T03:35:29.961Z,17.38
2023-04-04T03:36:01.530Z,17.37
2023-04-04T03:36:32.954Z,17.38
2023-04-04T03:37:04.336Z,17.38
2023-04-04T03:37:35.741Z,17.37
2023-04-04T03:38:07.165Z,17.38
2023-04-04T03:38:38.565Z,17.37
2023-04-04T03:39:09.981Z,17.38
2023-04-04T03:39:41.402Z,17.36
2023-04-04T03:40:12.808Z,17.36
2023-04-04T03:40:44.471Z,17.37
2023-04-04T03:41:16.005Z,17.34
2023-04-04T03:41:47.415Z,17.36
2023-04-04T03:42:18.825Z,17.35
2023-04-04T03:42:50.256Z,17.34
2023-04-04T03:43:21.678Z,17.35
2023-04-04T03:43:53.079Z,17.35
2023-04-04T03:44:24.477Z,17.36
2023-04-04T03:44:55.914Z,17.34
2023-04-04T03:45:27.334Z,17.34
2023-04-04T03:45:58.827Z,17.37
2023-04-04T03:46:30.372Z,17.35
2023-04-04T03:47:01.805Z,17.34
2023-04-04T03:47:33.340Z,17.33
2023-04-04T03:48:04.785Z,17.32
2023-04-04T03:48:36.197Z,17.32
2023-04-04T03:49:07.623Z,17.31
2023-04-04T03:49:39.044Z,17.31
2023-04-04T03:50:10.457Z,17.32
2023-04-04T03:50:42.066Z,17.30
2023-04-04T03:51:13.713Z,17.31
2023-04-04T03:51:45.154Z,17.31
2023-04-04T03:52:16.559Z,17.31
2023-04-04T03:52:47.969Z,17.32
2023-04-04T03:53:19.384Z,17.31
2023-04-04T03:53:50.790Z,17.31
2023-04-04T03:54:22.196Z,17.31
2023-04-04T03:54:53.606Z,17.30
2023-04-04T03:55:25.015Z,17.29
2023-04-04T03:55:56.423Z,17.30
2023-04-04T03:56:27.818Z,17.29
2023-04-04T03:56:59.270Z,17.28
2023-04-04T03:57:30.710Z,17.29
2023-04-04T03:58:02.150Z,17.29
2023-04-04T03:58:33.575Z,17.29
2023-04-04T03:59:05.064Z,17.28
2023-04-04T03:59:36.494Z,17.26
2023-04-04T04:00:07.894Z,17.27
2023-04-04T04:00:39.559Z,17.27
2023-04-04T04:01:11.098Z,17.27
2023-04-04T04:01:42.502Z,17.27
2023-04-04T04:02:13.984Z,17.26
2023-04-04T04:02:45.475Z,17.25
2023-04-04T04:03:17.427Z,17.25
2023-04-04T04:03:49.024Z,17.25
2023-04-04T04:04:20.547Z,17.24
2023-04-04T04:04:51.954Z,17.25
2023-04-04T04:05:23.366Z,17.25
2023-04-04T04:05:54.766Z,17.25
2023-04-04T04:06:26.198Z,17.24
2023-04-04T04:06:57.603Z,17.22
2023-04-04T04:07:29.071Z,17.25
2023-04-04T04:08:00.490Z,17.24
2023-04-04T04:08:31.896Z,17.24
2023-04-04T04:09:03.320Z,17.23
2023-04-04T04:09:34.727Z,17.23
2023-04-04T04:10:06.143Z,17.24
2023-04-04T04:10:37.550Z,17.25
2023-04-04T04:11:08.943Z,17.23
2023-04-04T04:11:40.338Z,17.23
2023-04-04T04:12:11.736Z,17.22
2023-04-04T04:12:43.180Z,17.22
2023-04-04T04:13:14.587Z,17.23
2023-04-04T04:13:46.001Z,17.24
2023-04-04T04:14:17.409Z,17.22
2023-04-04T04:14:48.841Z,17.22
2023-04-04T04:15:20.277Z,17.22
2023-04-04T04:15:51.691Z,17.22
2023-04-04T04:16:23.133Z,17.22
2023-04-04T04:16:54.589Z,17.22
2023-04-04T04:17:26.002Z,17.22
2023-04-04T04:17:57.499Z,17.21
2023-04-04T04:18:28.943Z,17.21
2023-04-04T04:19:00.370Z,17.19
2023-04-04T04:19:31.774Z,17.19
2023-04-04T04:20:03.197Z,17.20
2023-04-04T04:20:34.605Z,17.18
2023-04-04T04:21:05.995Z,17.19
2023-04-04T04:21:37.428Z,17.19
2023-04-04T04:22:08.830Z,17.18
2023-04-04T04:22:40.295Z,17.17
2023-04-04T04:23:11.702Z,17.16
2023-04-04T04:23:43.143Z,17.17
2023-04-04T04:24:14.578Z,17.17
2023-04-04T04:24:45.985Z,17.18
2023-04-04T04:25:17.412Z,17.17
2023-04-04T04:25:48.833Z,17.17
2023-04-04T04:26:20.269Z,17.15
2023-04-04T04:26:51.692Z,17.15
2023-04-04T04:27:23.098Z,17.13
2023-04-04T04:27:54.531Z,17.13
2023-04-04T04:28:34.072Z,17.13
2023-04-04T04:29:05.861Z,17.15
2023-04-04T04:29:37.262Z,17.14
2023-04-04T04:30:08.678Z,17.15
2023-04-04T04:30:40.433Z,17.15
2023-04-04T04:31:12.177Z,17.15
2023-04-04T04:31:43.669Z,17.16
2023-04-04T04:32:15.088Z,17.16
2023-04-04T04:32:46.533Z,17.16
2023-04-04T04:33:17.983Z,17.15
2023-04-04T04:33:49.378Z,17.16
2023-04-04T04:34:20.789Z,17.17
2023-04-04T04:34:52.188Z,17.17
2023-04-04T04:35:23.593Z,17.18
2023-04-04T04:35:55.024Z,17.18
2023-04-04T04:36:26.493Z,17.18
2023-04-04T04:36:57.924Z,17.19
2023-04-04T04:37:29.335Z,17.19
2023-04-04T04:38:00.753Z,17.19
2023-04-04T04:38:32.219Z,17.19
2023-04-04T04:39:03.630Z,17.20
2023-04-04T04:39:35.042Z,17.19
2023-04-04T04:40:06.455Z,17.20
2023-04-04T04:40:37.995Z,17.20
2023-04-04T04:41:09.500Z,17.20
2023-04-04T04:41:40.934Z,17.21
2023-04-04T04:42:12.332Z,17.22
2023-04-04T04:42:43.728Z,17.21
2023-04-04T04:43:15.178Z,17.22
2023-04-04T04:43:46.574Z,17.21
2023-04-04T04:44:17.983Z,17.23
2023-04-04T04:44:49.373Z,17.24
2023-04-04T04:45:20.783Z,17.23
2023-04-04T04:45:52.178Z,17.23
2023-04-04T04:46:23.575Z,17.23
2023-04-04T04:46:55.077Z,17.22
2023-04-04T04:47:26.678Z,17.23
2023-04-04T04:47:58.148Z,17.24
2023-04-04T04:48:29.660Z,17.23
2023-04-04T04:49:01.118Z,17.23
2023-04-04T04:49:32.569Z,17.24
2023-04-04T04:50:03.975Z,17.25
2023-04-04T04:50:35.384Z,17.25
2023-04-04T04:51:06.795Z,17.25
2023-04-04T04:51:38.202Z,17.25
2023-04-04T04:52:09.612Z,17.26
2023-04-04T04:52:41.024Z,17.26
2023-04-04T04:53:12.453Z,17.26
2023-04-04T04:53:43.882Z,17.26
2023-04-04T04:54:15.285Z,17.27
2023-04-04T04:54:46.708Z,17.27
2023-04-04T04:55:18.131Z,17.26
2023-04-04T04:55:49.540Z,17.27
2023-04-04T04:56:20.962Z,17.27
2023-04-04T04:56:52.378Z,17.28
2023-04-04T04:57:23.791Z,17.27
2023-04-04T04:57:55.181Z,17.28
2023-04-04T04:58:27.621Z,17.28
2023-04-04T04:59:00.260Z,17.28
2023-04-04T04:59:31.751Z,17.29
2023-04-04T05:00:03.161Z,17.29
2023-04-04T05:00:34.645Z,17.29
2023-04-04T05:01:06.133Z,17.30
2023-04-04T05:01:37.590Z,17.30
2023-04-04T05:02:09.099Z,17.30
2023-04-04T05:02:40.711Z,17.30
2023-04-04T05:03:12.245Z,17.29
2023-04-04T05:03:43.653Z,17.30
2023-04-04T05:04:15.095Z,17.30
2023-04-04T05:04:46.503Z,17.31
2023-04-04T05:05:17.926Z,17.30
2023-04-04T05:05:49.338Z,17.31
2023-04-04T05:06:20.730Z,17.30
2023-04-04T05:06:52.165Z,17.31
2023-04-04T05:07:23.577Z,17.30
2023-04-04T05:07:54.974Z,17.32
2023-04-04T05:08:26.383Z,17.31
2023-04-04T05:08:57.807Z,17.32
2023-04-04T05:09:29.258Z,17.32
2023-04-04T05:10:00.664Z,17.32
2023-04-04T05:10:32.081Z,17.31
2023-04-04T05:11:05.275Z,17.32
2023-04-04T05:11:37.079Z,17.32
2023-04-04T05:12:08.490Z,17.32
2023-04-04T05:12:39.890Z,17.31
2023-04-04T05:13:11.285Z,17.32
2023-04-04T05:13:42.694Z,17.33
2023-04-04T05:14:14.094Z,17.31
2023-04-04T05:14:45.530Z,17.32
2023-04-04T05:15:16.937Z,17.31
2023-04-04T05:15:48.340Z,17.31
2023-04-04T05:16:19.739Z,17.32
2023-04-04T05:16:51.185Z,17.32
2023-04-04T05:17:22.633Z,17.32
2023-04-04T05:17:54.074Z,17.32
2023-04-04T05:18:25.555Z,17.32
2023-04-04T05:18:56.958Z,17.32
2023-04-04T05:19:28.403Z,17.32
2023-04-04T05:19:59.894Z,17.33
2023-04-04T05:20:31.280Z,17.33
2023-04-04T05:21:02.677Z,17.33
2023-04-04T05:21:34.094Z,17.34
2023-04-04T05:22:05.494Z,17.31
2023-04-04T05:22:36.890Z,17.33
2023-04-04T05:23:08.286Z,17.33
2023-04-04T05:23:39.693Z,17.33
2023-04-04T05:24:11.106Z,17.33
2023-04-04T05:24:42.519Z,17.33
2023-04-04T05:25:13.962Z,17.33
2023-04-04T05:25:45.357Z,17.32
2023-04-04T05:26:16.740Z,17.33
2023-04-04T05:26:48.150Z,17.32
2023-04-04T05:27:19.596Z,17.33
2023-04-04T05:27:51.004Z,17.33
2023-04-04T05:28:22.416Z,17.33
2023-04-04T05:28:53.826Z,17.33
2023-04-04T05:29:25.239Z,17.33
2023-04-04T05:29:56.652Z,17.34
2023-04-04T05:30:28.056Z,17.35
2023-04-04T05:30:59.464Z,17.34
2023-04-04T05:31:30.869Z,17.33
2023-04-04T05:32:02.337Z,17.35
2023-04-04T05:32:33.813Z,17.34
2023-04-04T05:33:05.316Z,17.33
2023-04-04T05:33:36.779Z,17.34
2023-04-04T05:34:08.253Z,17.34
2023-04-04T05:34:39.692Z,17.34
2023-04-04T05:35:11.209Z,17.34
2023-04-04T05:35:42.704Z,17.34
2023-04-04T05:36:14.214Z,17.35
2023-04-04T05:36:45.670Z,17.34
2023-04-04T05:37:17.141Z,17.35
2023-04-04T05:37:48.566Z,17.35
2023-04-04T05:38:20.005Z,17.33
2023-04-04T05:38:51.411Z,17.34
2023-04-04T05:39:22.803Z,17.33
2023-04-04T05:39:54.213Z,17.34
2023-04-04T05:40:25.617Z,17.33
2023-04-04T05:40:57.063Z,17.33
2023-04-04T05:41:28.468Z,17.33
2023-04-04T05:41:59.860Z,17.34
2023-04-04T05:42:31.267Z,17.33
2023-04-04T05:43:02.683Z,17.33
2023-04-04T05:43:34.093Z,17.33
2023-04-04T05:44:05.498Z,17.32
2023-04-04T05:44:36.892Z,17.34
2023-04-04T05:45:08.297Z,17.32
2023-04-04T05:45:41.422Z,17.33
2023-04-04T05:46:13.465Z,17.33
2023-04-04T05:46:44.939Z,17.33
2023-04-04T05:47:16.394Z,17.33
2023-04-04T05:47:47.887Z,17.32
2023-04-04T05:48:19.307Z,17.31
2023-04-04T05:48:50.714Z,17.32
2023-04-04T05:49:22.146Z,17.32
2023-04-04T05:49:53.559Z,17.31
2023-04-04T05:50:24.963Z,17.31
2023-04-04T05:50:56.400Z,17.31
2023-04-04T05:51:27.806Z,17.31
2023-04-04T05:51:59.228Z,17.31
2023-04-04T05:52:30.627Z,17.31
2023-04-04T05:53:02.020Z,17.30
2023-04-04T05:53:33.430Z,17.30
2023-04-04T05:54:04.855Z,17.29
2023-04-04T05:54:36.275Z,17.30
2023-04-04T05:55:07.680Z,17.30
2023-04-04T05:55:39.077Z,17.29
2023-04-04T05:56:10.502Z,17.30
2023-04-04T05:56:41.938Z,17.30
2023-04-04T05:57:13.358Z,17.29
2023-04-04T05:57:44.762Z,17.29
2023-04-04T05:58:16.199Z,17.29
2023-04-04T05:58:47.660Z,17.30
2023-04-04T05:59:19.122Z,17.29
2023-04-04T05:59:50.561Z,17.29
2023-04-04T06:00:21.992Z,17.30
2023-04-04T06:00:53.400Z,17.30
2023-04-04T06:01:24.878Z,17.28
2023-04-04T06:01:56.315Z,17.28
2023-04-04T06:02:27.788Z,17.29
2023-04-04T06:02:59.289Z,17.28
2023-04-04T06:03:30.977Z,17.28
2023-04-04T06:04:02.594Z,17.29
2023-04-04T06:04:34.002Z,17.29
2023-04-04T06:05:05.422Z,17.28
2023-04-04T06:05:36.906Z,17.29
2023-04-04T06:06:08.376Z,17.27
2023-04-04T06:06:39.797Z,17.29
2023-04-04T06:07:11.226Z,17.28
2023-04-04T06:07:42.629Z,17.29
2023-04-04T06:08:14.027Z,17.29
2023-04-04T06:08:53.398Z,17.29
2023-04-04T06:09:25.379Z,17.29
2023-04-04T06:09:56.770Z,17.29
2023-04-04T06:10:28.197Z,17.30
2023-04-04T06:10:59.594Z,17.30
2023-04-04T06:11:30.986Z,17.30
2023-04-04T06:12:02.378Z,17.30
2023-04-04T06:12:33.850Z,17.32
2023-04-04T06:13:05.269Z,17.31
2023-04-04T06:13:36.701Z,17.32
2023-04-04T06:14:08.116Z,17.32
2023-04-04T06:14:39.532Z,17.32
2023-04-04T06:15:10.946Z,17.31
2023-04-04T06:15:42.413Z,17.31
2023-04-04T06:16:13.869Z,17.32
2023-04-04T06:16:45.289Z,17.32
2023-04-04T06:17:16.689Z,17.33
2023-04-04T06:17:48.123Z,17.33
2023-04-04T06:18:19.609Z,17.33
2023-04-04T06:18:51.050Z,17.33
2023-04-04T06:19:22.450Z,17.33
2023-04-04T06:19:53.866Z,17.33
2023-04-04T06:20:25.285Z,17.33
2023-04-04T06:20:56.674Z,17.35
2023-04-04T06:21:28.341Z,17.34
2023-04-04T06:21:59.763Z,17.34
2023-04-04T06:22:31.192Z,17.36
2023-04-04T06:23:03.267Z,17.35
2023-04-04T06:23:35.009Z,17.35
2023-04-04T06:24:06.764Z,17.36
2023-04-04T06:24:41.112Z,17.34
2023-04-04T06:25:12.631Z,17.34
2023-04-04T06:25:44.350Z,17.35
2023-04-04T06:26:15.825Z,17.36
2023-04-04T06:26:47.265Z,17.36
2023-04-04T06:27:18.684Z,17.36
2023-04-04T06:27:50.066Z,17.37
2023-04-04T06:28:21.526Z,17.37
2023-04-04T06:28:52.949Z,17.38
2023-04-04T06:29:24.358Z,17.39
2023-04-04T06:29:55.763Z,17.38
2023-04-04T06:30:27.189Z,17.37
2023-04-04T06:30:58.604Z,17.36
2023-04-04T06:31:30.088Z,17.38
2023-04-04T06:32:01.536Z,17.38
2023-04-04T06:32:32.946Z,17.39
2023-04-04T06:33:04.385Z,17.39
2023-04-04T06:33:35.854Z,17.39
2023-04-04T06:34:07.295Z,17.40
2023-04-04T06:34:38.686Z,17.41
2023-04-04T06:35:10.089Z,17.42
2023-04-04T06:35:41.493Z,17.43
2023-04-04T06:36:12.925Z,17.45
2023-04-04T06:36:44.408Z,17.45
2023-04-04T06:37:15.812Z,17.45
2023-04-04T06:37:47.219Z,17.46
2023-04-04T06:38:19.320Z,17.47
2023-04-04T06:38:50.874Z,17.48
2023-04-04T06:39:22.275Z,17.48
2023-04-04T06:39:53.679Z,17.48
2023-04-04T06:40:25.171Z,17.50
2023-04-04T06:40:59.767Z,17.51
2023-04-04T06:41:31.161Z,17.52
2023-04-04T06:42:02.578Z,17.53
2023-04-04T06:42:34.010Z,17.53
2023-04-04T06:43:05.441Z,17.53
2023-04-04T06:43:36.853Z,17.54
2023-04-04T06:44:08.340Z,17.54
2023-04-04T06:44:39.736Z,17.55
2023-04-04T06:45:11.235Z,17.55
2023-04-04T06:45:42.632Z,17.55